createdAt,value
2018-08-09T00:00:05.111Z,27.3
2018-08-09T00:15:04.823Z,27.2
2018-08-09T00:30:05.229Z,27
2018-08-09T00:45:04.705Z,26.9
2018-08-09T01:00:04.788Z,26.7
2018-08-09T01:15:04.904Z,26.6
2018-08-09T01:30:04.918Z,26.5
2018-08-09T01:45:05.067Z,26.3
2018-08-09T02:00:04.601Z,26.3
2018-08-09T02:15:05.260Z,26.1
2018-08-09T02:30:05.049Z,26
2018-08-09T02:45:05.146Z,25.9
2018-08-09T03:00:04.611Z,25.8
2018-08-09T03:15:05.563Z,25.7
2018-08-09T03:30:04.895Z,25.7
2018-08-09T03:45:04.598Z,25.6
2018-08-09T04:00:05.020Z,25.5
2018-08-09T04:15:05.351Z,25.4
2018-08-09T04:30:04.611Z,25.3
2018-08-09T04:45:04.564Z,25.2
2018-08-09T05:00:04.523Z,25.3
2018-08-09T05:15:04.961Z,25.4
2018-08-09T05:30:05.513Z,25.4
2018-08-09T05:45:05.035Z,25.5
2018-08-09T06:00:05.023Z,25.5
2018-08-09T06:15:04.989Z,25.4
2018-08-09T06:30:05.020Z,25.6
2018-08-09T06:45:04.946Z,25.7
2018-08-09T07:00:05.143Z,25.8
2018-08-09T07:15:05.145Z,26.2
2018-08-09T07:30:04.319Z,26.6
2018-08-09T07:45:04.702Z,27.3
2018-08-09T08:00:05.250Z,27.9
2018-08-09T08:15:05.119Z,28.8
2018-08-09T08:30:05.020Z,32.9
2018-08-09T08:45:04.358Z,36.4
2018-08-09T09:00:05.065Z,37.8
2018-08-09T09:15:04.529Z,37.8
2018-08-09T09:30:04.658Z,37.3
2018-08-09T09:45:04.547Z,37.6
2018-08-09T10:00:05.239Z,34.3
2018-08-09T10:15:05.200Z,33.1
2018-08-09T10:30:04.924Z,32.7
2018-08-09T10:45:04.286Z,32.6
2018-08-09T11:00:04.226Z,32.4
2018-08-09T11:15:04.813Z,32.4
2018-08-09T11:30:05.057Z,32.3
2018-08-09T11:45:05.016Z,32.4
2018-08-09T12:00:04.893Z,32.1
2018-08-09T12:15:04.935Z,31.9
2018-08-09T12:30:04.991Z,32
2018-08-09T12:45:04.989Z,31.9
2018-08-09T13:00:05.001Z,31.7
2018-08-09T13:15:04.307Z,31.2
2018-08-09T13:30:04.887Z,30.6
2018-08-09T13:45:04.343Z,30.9
2018-08-09T14:15:05.184Z,30.4
2018-08-09T14:30:04.925Z,30.3
2018-08-09T14:45:04.759Z,30.8
2018-08-09T15:00:04.702Z,30.7
2018-08-09T15:15:04.983Z,30.6
2018-08-09T15:30:05.076Z,29.9
2018-08-09T15:45:04.685Z,28.8
2018-08-09T16:00:04.645Z,28.8
2018-08-09T16:15:05.367Z,28.1
2018-08-09T16:30:04.851Z,27.4
2018-08-09T16:45:04.455Z,27.7
2018-08-09T17:00:04.442Z,27.7
2018-08-09T17:15:05.030Z,27.5
2018-08-09T17:30:05.767Z,27.5
2018-08-09T17:45:05.043Z,27.3
2018-08-09T18:00:04.812Z,27.2
2018-08-09T18:15:04.600Z,27.1
2018-08-09T18:30:04.380Z,27.3
2018-08-09T18:45:04.757Z,27.3
2018-08-09T19:00:04.267Z,27.2
2018-08-09T19:15:04.700Z,27.1
2018-08-09T19:30:05.075Z,26.9
2018-08-09T19:45:09.496Z,26.7
2018-08-09T20:00:04.673Z,26.7
2018-08-09T20:15:09.555Z,26.6
2018-08-09T20:30:04.869Z,26.6
2018-08-09T20:45:04.622Z,26.4
2018-08-09T21:00:04.995Z,26.3
2018-08-09T21:15:05.087Z,26.1
2018-08-09T21:30:04.602Z,26
2018-08-09T21:45:06.062Z,25.9
2018-08-09T22:00:05.125Z,25.9
2018-08-09T22:15:04.882Z,25.9
2018-08-09T22:30:05.271Z,25.9
2018-08-09T22:45:04.876Z,25.8
2018-08-09T23:00:05.000Z,25.7
2018-08-09T23:15:05.060Z,25.7
2018-08-09T23:30:04.807Z,25.7
2018-08-09T23:45:04.554Z,25.4
